sensor_id;sensor_type;location;lat;lon;timestamp;P1;durP1;ratioP1;P2;durP2;ratioP2
30380;SDS011;17169;50.966;11.038;2022-10-31T00:00:39;14.90;;;5.78;;
30380;SDS011;17169;50.966;11.038;2022-10-31T00:03:42;21.83;;;6.30;;
30380;SDS011;17169;50.966;11.038;2022-10-31T00:06:44;17.00;;;6.75;;
30380;SDS011;17169;50.966;11.038;2022-10-31T00:09:46;18.88;;;6.05;;
30380;SDS011;17169;50.966;11.038;2022-10-31T00:12:50;17.55;;;6.72;;
30380;SDS011;17169;50.966;11.038;2022-10-31T00:15:53;14.02;;;5.82;;
30380;SDS011;17169;50.966;11.038;2022-10-31T00:18:56;15.38;;;6.43;;
30380;SDS011;17169;50.966;11.038;2022-10-31T00:22:00;14.88;;;6.20;;
30380;SDS011;17169;50.966;11.038;2022-10-31T00:25:03;17.80;;;7.40;;
30380;SDS011;17169;50.966;11.038;2022-10-31T00:28:07;16.60;;;6.40;;
30380;SDS011;17169;50.966;11.038;2022-10-31T00:34:14;15.90;;;5.70;;
30380;SDS011;17169;50.966;11.038;2022-10-31T00:37:16;16.33;;;6.20;;
30380;SDS011;17169;50.966;11.038;2022-10-31T00:40:18;16.30;;;5.13;;
30380;SDS011;17169;50.966;11.038;2022-10-31T00:43:22;11.38;;;5.53;;
30380;SDS011;17169;50.966;11.038;2022-10-31T00:46:24;14.85;;;6.15;;
30380;SDS011;17169;50.966;11.038;2022-10-31T00:49:27;16.40;;;5.53;;
30380;SDS011;17169;50.966;11.038;2022-10-31T00:52:29;15.25;;;6.13;;
30380;SDS011;17169;50.966;11.038;2022-10-31T00:55:32;15.70;;;5.40;;
30380;SDS011;17169;50.966;11.038;2022-10-31T00:58:36;13.15;;;5.45;;
30380;SDS011;17169;50.966;11.038;2022-10-31T01:01:38;16.42;;;5.45;;
30380;SDS011;17169;50.966;11.038;2022-10-31T01:04:41;11.00;;;5.60;;
30380;SDS011;17169;50.966;11.038;2022-10-31T01:07:43;13.85;;;5.18;;
30380;SDS011;17169;50.966;11.038;2022-10-31T01:10:45;15.43;;;4.85;;
30380;SDS011;17169;50.966;11.038;2022-10-31T01:13:50;14.95;;;6.85;;
30380;SDS011;17169;50.966;11.038;2022-10-31T01:16:54;10.75;;;5.22;;
30380;SDS011;17169;50.966;11.038;2022-10-31T01:19:56;12.18;;;5.13;;
30380;SDS011;17169;50.966;11.038;2022-10-31T01:22:58;11.90;;;4.90;;
30380;SDS011;17169;50.966;11.038;2022-10-31T01:26:02;15.18;;;5.05;;
30380;SDS011;17169;50.966;11.038;2022-10-31T01:29:08;16.63;;;5.28;;
30380;SDS011;17169;50.966;11.038;2022-10-31T01:32:10;11.98;;;4.22;;
30380;SDS011;17169;50.966;11.038;2022-10-31T01:35:13;9.82;;;4.80;;
30380;SDS011;17169;50.966;11.038;2022-10-31T01:38:15;11.90;;;4.07;;
30380;SDS011;17169;50.966;11.038;2022-10-31T01:41:19;11.50;;;4.32;;
30380;SDS011;17169;50.966;11.038;2022-10-31T01:47:53;11.52;;;4.88;;
30380;SDS011;17169;50.966;11.038;2022-10-31T01:50:55;21.58;;;4.72;;
30380;SDS011;17169;50.966;11.038;2022-10-31T01:53:58;11.40;;;4.53;;
30380;SDS011;17169;50.966;11.038;2022-10-31T01:57:03;12.35;;;4.38;;
30380;SDS011;17169;50.966;11.038;2022-10-31T02:00:09;11.52;;;5.55;;
30380;SDS011;17169;50.966;11.038;2022-10-31T02:03:13;14.55;;;5.57;;
30380;SDS011;17169;50.966;11.038;2022-10-31T02:06:19;10.60;;;4.18;;
30380;SDS011;17169;50.966;11.038;2022-10-31T02:09:34;15.25;;;4.82;;
30380;SDS011;17169;50.966;11.038;2022-10-31T02:12:38;12.35;;;4.82;;
30380;SDS011;17169;50.966;11.038;2022-10-31T02:15:44;11.73;;;4.47;;
30380;SDS011;17169;50.966;11.038;2022-10-31T02:18:49;13.07;;;4.22;;
30380;SDS011;17169;50.966;11.038;2022-10-31T02:21:52;12.45;;;5.07;;
30380;SDS011;17169;50.966;11.038;2022-10-31T02:25:09;10.52;;;4.50;;
30380;SDS011;17169;50.966;11.038;2022-10-31T02:28:30;10.68;;;4.55;;
30380;SDS011;17169;50.966;11.038;2022-10-31T02:31:54;10.77;;;4.40;;
30380;SDS011;17169;50.966;11.038;2022-10-31T02:35:04;9.88;;;4.25;;
30380;SDS011;17169;50.966;11.038;2022-10-31T02:38:21;11.35;;;4.22;;
30380;SDS011;17169;50.966;11.038;2022-10-31T02:41:31;10.35;;;4.93;;
30380;SDS011;17169;50.966;11.038;2022-10-31T02:44:40;8.13;;;4.50;;
30380;SDS011;17169;50.966;11.038;2022-10-31T02:47:48;10.75;;;4.15;;
30380;SDS011;17169;50.966;11.038;2022-10-31T02:50:55;12.45;;;5.03;;
30380;SDS011;17169;50.966;11.038;2022-10-31T02:53:59;12.48;;;4.88;;
30380;SDS011;17169;50.966;11.038;2022-10-31T02:57:02;11.90;;;4.97;;
30380;SDS011;17169;50.966;11.038;2022-10-31T03:00:08;12.80;;;4.55;;
30380;SDS011;17169;50.966;11.038;2022-10-31T03:03:13;11.18;;;4.28;;
30380;SDS011;17169;50.966;11.038;2022-10-31T03:06:20;17.13;;;4.60;;
30380;SDS011;17169;50.966;11.038;2022-10-31T03:09:32;12.32;;;4.28;;
30380;SDS011;17169;50.966;11.038;2022-10-31T03:12:43;12.27;;;4.85;;
30380;SDS011;17169;50.966;11.038;2022-10-31T03:15:52;10.88;;;4.53;;
30380;SDS011;17169;50.966;11.038;2022-10-31T03:19:00;12.60;;;4.25;;
30380;SDS011;17169;50.966;11.038;2022-10-31T03:22:06;10.90;;;4.55;;
30380;SDS011;17169;50.966;11.038;2022-10-31T03:25:16;15.88;;;4.63;;
30380;SDS011;17169;50.966;11.038;2022-10-31T03:28:21;8.75;;;4.03;;
30380;SDS011;17169;50.966;11.038;2022-10-31T03:31:28;10.00;;;5.15;;
30380;SDS011;17169;50.966;11.038;2022-10-31T03:34:34;8.73;;;3.95;;
30380;SDS011;17169;50.966;11.038;2022-10-31T03:37:38;12.27;;;4.38;;
30380;SDS011;17169;50.966;11.038;2022-10-31T03:40:43;9.70;;;4.75;;
30380;SDS011;17169;50.966;11.038;2022-10-31T03:43:52;10.90;;;4.70;;
30380;SDS011;17169;50.966;11.038;2022-10-31T03:46:59;9.95;;;4.68;;
30380;SDS011;17169;50.966;11.038;2022-10-31T03:50:05;8.70;;;4.07;;
30380;SDS011;17169;50.966;11.038;2022-10-31T03:53:09;10.57;;;4.15;;
30380;SDS011;17169;50.966;11.038;2022-10-31T03:56:17;15.82;;;4.53;;
30380;SDS011;17169;50.966;11.038;2022-10-31T03:59:24;17.90;;;4.40;;
30380;SDS011;17169;50.966;11.038;2022-10-31T04:02:30;11.63;;;4.03;;
30380;SDS011;17169;50.966;11.038;2022-10-31T04:05:35;12.75;;;4.55;;
30380;SDS011;17169;50.966;11.038;2022-10-31T04:08:40;10.32;;;4.10;;
30380;SDS011;17169;50.966;11.038;2022-10-31T04:11:48;11.80;;;4.40;;
30380;SDS011;17169;50.966;11.038;2022-10-31T04:14:54;12.20;;;4.18;;
30380;SDS011;17169;50.966;11.038;2022-10-31T04:17:58;9.18;;;4.45;;
30380;SDS011;17169;50.966;11.038;2022-10-31T04:21:05;10.90;;;4.22;;
30380;SDS011;17169;50.966;11.038;2022-10-31T04:24:08;10.82;;;4.38;;
30380;SDS011;17169;50.966;11.038;2022-10-31T04:27:10;10.75;;;4.97;;
30380;SDS011;17169;50.966;11.038;2022-10-31T04:30:13;9.20;;;4.90;;
30380;SDS011;17169;50.966;11.038;2022-10-31T04:33:15;11.65;;;4.07;;
30380;SDS011;17169;50.966;11.038;2022-10-31T04:36:20;11.68;;;3.85;;
30380;SDS011;17169;50.966;11.038;2022-10-31T04:39:22;11.15;;;3.58;;
30380;SDS011;17169;50.966;11.038;2022-10-31T04:42:24;12.52;;;4.30;;
30380;SDS011;17169;50.966;11.038;2022-10-31T04:45:30;10.82;;;4.55;;
30380;SDS011;17169;50.966;11.038;2022-10-31T04:48:32;7.53;;;4.18;;
30380;SDS011;17169;50.966;11.038;2022-10-31T04:51:36;9.95;;;4.22;;
30380;SDS011;17169;50.966;11.038;2022-10-31T04:54:38;11.15;;;5.22;;
30380;SDS011;17169;50.966;11.038;2022-10-31T04:57:41;11.25;;;4.15;;
30380;SDS011;17169;50.966;11.038;2022-10-31T05:00:43;8.43;;;4.20;;
30380;SDS011;17169;50.966;11.038;2022-10-31T05:03:46;10.80;;;4.57;;
30380;SDS011;17169;50.966;11.038;2022-10-31T05:06:49;17.15;;;4.40;;
30380;SDS011;17169;50.966;11.038;2022-10-31T05:09:52;9.98;;;4.10;;
30380;SDS011;17169;50.966;11.038;2022-10-31T05:12:54;11.07;;;4.25;;
30380;SDS011;17169;50.966;11.038;2022-10-31T05:15:58;8.82;;;3.75;;
30380;SDS011;17169;50.966;11.038;2022-10-31T05:19:01;12.30;;;4.60;;
30380;SDS011;17169;50.966;11.038;2022-10-31T05:22:04;13.20;;;4.20;;
30380;SDS011;17169;50.966;11.038;2022-10-31T05:25:07;12.73;;;4.35;;
30380;SDS011;17169;50.966;11.038;2022-10-31T05:28:10;8.85;;;3.58;;
30380;SDS011;17169;50.966;11.038;2022-10-31T05:31:12;10.43;;;4.00;;
30380;SDS011;17169;50.966;11.038;2022-10-31T05:34:14;12.27;;;3.88;;
30380;SDS011;17169;50.966;11.038;2022-10-31T05:37:18;11.98;;;3.80;;
30380;SDS011;17169;50.966;11.038;2022-10-31T05:40:21;12.57;;;4.68;;
30380;SDS011;17169;50.966;11.038;2022-10-31T05:43:23;11.10;;;4.30;;
30380;SDS011;17169;50.966;11.038;2022-10-31T05:46:26;16.90;;;4.28;;
30380;SDS011;17169;50.966;11.038;2022-10-31T05:49:28;9.23;;;4.30;;
30380;SDS011;17169;50.966;11.038;2022-10-31T05:52:32;12.57;;;3.88;;
30380;SDS011;17169;50.966;11.038;2022-10-31T05:55:34;10.13;;;3.95;;
30380;SDS011;17169;50.966;11.038;2022-10-31T05:58:37;16.02;;;4.88;;
30380;SDS011;17169;50.966;11.038;2022-10-31T06:01:39;9.02;;;3.55;;
30380;SDS011;17169;50.966;11.038;2022-10-31T06:04:42;10.77;;;3.95;;
30380;SDS011;17169;50.966;11.038;2022-10-31T06:07:45;13.82;;;3.70;;
30380;SDS011;17169;50.966;11.038;2022-10-31T06:10:48;14.00;;;4.40;;
30380;SDS011;17169;50.966;11.038;2022-10-31T06:13:50;11.40;;;4.10;;
30380;SDS011;17169;50.966;11.038;2022-10-31T06:16:53;12.35;;;4.95;;
30380;SDS011;17169;50.966;11.038;2022-10-31T06:19:56;10.95;;;3.90;;
30380;SDS011;17169;50.966;11.038;2022-10-31T06:22:59;9.43;;;3.65;;
30380;SDS011;17169;50.966;11.038;2022-10-31T06:26:02;12.80;;;4.22;;
30380;SDS011;17169;50.966;11.038;2022-10-31T06:29:05;16.55;;;4.97;;
30380;SDS011;17169;50.966;11.038;2022-10-31T06:32:09;14.43;;;4.53;;
30380;SDS011;17169;50.966;11.038;2022-10-31T06:35:12;11.02;;;3.83;;
30380;SDS011;17169;50.966;11.038;2022-10-31T06:38:15;9.75;;;3.78;;
30380;SDS011;17169;50.966;11.038;2022-10-31T06:41:18;12.63;;;4.95;;
30380;SDS011;17169;50.966;11.038;2022-10-31T06:44:20;11.93;;;4.70;;
30380;SDS011;17169;50.966;11.038;2022-10-31T06:47:23;12.32;;;4.22;;
30380;SDS011;17169;50.966;11.038;2022-10-31T06:50:25;8.95;;;4.78;;
30380;SDS011;17169;50.966;11.038;2022-10-31T06:53:29;10.65;;;4.70;;
30380;SDS011;17169;50.966;11.038;2022-10-31T06:56:31;8.35;;;4.18;;
30380;SDS011;17169;50.966;11.038;2022-10-31T06:59:33;10.40;;;4.40;;
30380;SDS011;17169;50.966;11.038;2022-10-31T07:02:36;9.27;;;3.72;;
30380;SDS011;17169;50.966;11.038;2022-10-31T07:05:38;11.40;;;3.80;;
30380;SDS011;17169;50.966;11.038;2022-10-31T07:08:42;10.73;;;4.20;;
30380;SDS011;17169;50.966;11.038;2022-10-31T07:11:45;13.65;;;4.20;;
30380;SDS011;17169;50.966;11.038;2022-10-31T07:14:47;13.75;;;4.15;;
30380;SDS011;17169;50.966;11.038;2022-10-31T07:17:49;8.68;;;4.18;;
30380;SDS011;17169;50.966;11.038;2022-10-31T07:20:52;13.93;;;3.90;;
30380;SDS011;17169;50.966;11.038;2022-10-31T07:23:56;12.85;;;3.78;;
30380;SDS011;17169;50.966;11.038;2022-10-31T07:26:59;13.77;;;4.18;;
30380;SDS011;17169;50.966;11.038;2022-10-31T07:30:01;15.00;;;4.70;;
30380;SDS011;17169;50.966;11.038;2022-10-31T07:33:04;14.30;;;4.25;;
30380;SDS011;17169;50.966;11.038;2022-10-31T07:36:07;14.75;;;4.93;;
30380;SDS011;17169;50.966;11.038;2022-10-31T07:39:10;17.02;;;4.70;;
30380;SDS011;17169;50.966;11.038;2022-10-31T07:42:13;8.68;;;3.78;;
30380;SDS011;17169;50.966;11.038;2022-10-31T07:45:16;12.43;;;4.10;;
30380;SDS011;17169;50.966;11.038;2022-10-31T07:48:20;10.30;;;4.43;;
30380;SDS011;17169;50.966;11.038;2022-10-31T07:51:23;12.05;;;4.47;;
30380;SDS011;17169;50.966;11.038;2022-10-31T07:54:27;12.00;;;4.35;;
30380;SDS011;17169;50.966;11.038;2022-10-31T07:57:29;16.58;;;4.57;;
30380;SDS011;17169;50.966;11.038;2022-10-31T08:00:32;9.90;;;4.00;;
30380;SDS011;17169;50.966;11.038;2022-10-31T08:03:36;11.63;;;3.63;;
30380;SDS011;17169;50.966;11.038;2022-10-31T08:06:38;8.80;;;4.10;;
30380;SDS011;17169;50.966;11.038;2022-10-31T08:09:42;7.63;;;4.03;;
30380;SDS011;17169;50.966;11.038;2022-10-31T08:12:44;11.48;;;3.78;;
30380;SDS011;17169;50.966;11.038;2022-10-31T08:15:46;9.07;;;4.10;;
30380;SDS011;17169;50.966;11.038;2022-10-31T08:18:50;10.93;;;4.50;;
30380;SDS011;17169;50.966;11.038;2022-10-31T08:21:54;13.20;;;4.53;;
30380;SDS011;17169;50.966;11.038;2022-10-31T08:24:57;9.57;;;4.07;;
30380;SDS011;17169;50.966;11.038;2022-10-31T08:28:00;13.45;;;4.57;;
30380;SDS011;17169;50.966;11.038;2022-10-31T08:31:02;12.15;;;4.03;;
30380;SDS011;17169;50.966;11.038;2022-10-31T08:34:05;16.52;;;4.70;;
30380;SDS011;17169;50.966;11.038;2022-10-31T08:37:07;12.48;;;4.50;;
30380;SDS011;17169;50.966;11.038;2022-10-31T08:40:11;13.18;;;4.72;;
30380;SDS011;17169;50.966;11.038;2022-10-31T08:43:14;9.95;;;3.92;;
30380;SDS011;17169;50.966;11.038;2022-10-31T08:46:18;7.75;;;4.05;;
30380;SDS011;17169;50.966;11.038;2022-10-31T08:49:20;10.73;;;3.95;;
30380;SDS011;17169;50.966;11.038;2022-10-31T08:52:23;9.52;;;4.47;;
30380;SDS011;17169;50.966;11.038;2022-10-31T08:55:28;14.00;;;4.80;;
30380;SDS011;17169;50.966;11.038;2022-10-31T08:58:30;14.40;;;4.85;;
30380;SDS011;17169;50.966;11.038;2022-10-31T09:01:32;9.27;;;4.50;;
30380;SDS011;17169;50.966;11.038;2022-10-31T09:04:35;9.98;;;4.47;;
30380;SDS011;17169;50.966;11.038;2022-10-31T09:07:37;13.48;;;4.50;;
30380;SDS011;17169;50.966;11.038;2022-10-31T09:10:41;11.02;;;4.30;;
30380;SDS011;17169;50.966;11.038;2022-10-31T09:13:44;11.88;;;4.78;;
30380;SDS011;17169;50.966;11.038;2022-10-31T09:16:46;13.60;;;5.05;;
30380;SDS011;17169;50.966;11.038;2022-10-31T09:19:48;11.90;;;4.78;;
30380;SDS011;17169;50.966;11.038;2022-10-31T09:22:55;12.45;;;5.72;;
30380;SDS011;17169;50.966;11.038;2022-10-31T09:25:59;14.98;;;5.55;;
30380;SDS011;17169;50.966;11.038;2022-10-31T09:29:02;13.50;;;5.63;;
30380;SDS011;17169;50.966;11.038;2022-10-31T09:32:05;14.68;;;5.70;;
30380;SDS011;17169;50.966;11.038;2022-10-31T09:35:07;10.55;;;5.35;;
30380;SDS011;17169;50.966;11.038;2022-10-31T09:38:10;11.57;;;5.10;;
30380;SDS011;17169;50.966;11.038;2022-10-31T09:41:18;13.00;;;5.07;;
30380;SDS011;17169;50.966;11.038;2022-10-31T09:44:29;12.48;;;4.63;;
30380;SDS011;17169;50.966;11.038;2022-10-31T09:47:44;11.65;;;4.70;;
30380;SDS011;17169;50.966;11.038;2022-10-31T09:50:54;11.55;;;5.30;;
30380;SDS011;17169;50.966;11.038;2022-10-31T09:54:02;9.98;;;4.88;;
30380;SDS011;17169;50.966;11.038;2022-10-31T09:57:10;14.63;;;5.53;;
30380;SDS011;17169;50.966;11.038;2022-10-31T10:00:16;13.27;;;5.20;;
30380;SDS011;17169;50.966;11.038;2022-10-31T10:03:24;12.25;;;5.50;;
30380;SDS011;17169;50.966;11.038;2022-10-31T10:06:33;14.32;;;5.35;;
30380;SDS011;17169;50.966;11.038;2022-10-31T10:09:42;11.73;;;4.65;;
30380;SDS011;17169;50.966;11.038;2022-10-31T10:12:50;14.30;;;5.03;;
30380;SDS011;17169;50.966;11.038;2022-10-31T10:19:49;11.48;;;4.55;;
30380;SDS011;17169;50.966;11.038;2022-10-31T10:23:22;13.55;;;5.03;;
30380;SDS011;17169;50.966;11.038;2022-10-31T10:26:36;18.65;;;5.38;;
30380;SDS011;17169;50.966;11.038;2022-10-31T10:29:42;16.45;;;6.05;;
30380;SDS011;17169;50.966;11.038;2022-10-31T10:32:52;19.75;;;5.10;;
30380;SDS011;17169;50.966;11.038;2022-10-31T10:35:58;25.33;;;7.80;;
30380;SDS011;17169;50.966;11.038;2022-10-31T10:39:03;13.73;;;5.53;;
30380;SDS011;17169;50.966;11.038;2022-10-31T10:42:11;13.52;;;5.32;;
30380;SDS011;17169;50.966;11.038;2022-10-31T10:45:33;9.52;;;5.25;;
30380;SDS011;17169;50.966;11.038;2022-10-31T10:48:54;12.00;;;5.20;;
30380;SDS011;17169;50.966;11.038;2022-10-31T10:52:04;13.38;;;5.15;;
30380;SDS011;17169;50.966;11.038;2022-10-31T10:55:15;17.45;;;6.07;;
30380;SDS011;17169;50.966;11.038;2022-10-31T10:58:24;19.90;;;6.20;;
30380;SDS011;17169;50.966;11.038;2022-10-31T11:01:28;16.50;;;5.25;;
30380;SDS011;17169;50.966;11.038;2022-10-31T11:04:31;14.57;;;5.68;;
30380;SDS011;17169;50.966;11.038;2022-10-31T11:07:38;12.35;;;5.30;;
30380;SDS011;17169;50.966;11.038;2022-10-31T11:10:41;14.02;;;4.70;;
30380;SDS011;17169;50.966;11.038;2022-10-31T11:13:44;15.30;;;5.28;;
30380;SDS011;17169;50.966;11.038;2022-10-31T11:16:52;13.95;;;5.03;;
30380;SDS011;17169;50.966;11.038;2022-10-31T11:20:22;23.15;;;5.70;;
30380;SDS011;17169;50.966;11.038;2022-10-31T11:23:31;12.02;;;4.55;;
30380;SDS011;17169;50.966;11.038;2022-10-31T11:26:34;14.07;;;5.38;;
30380;SDS011;17169;50.966;11.038;2022-10-31T11:29:38;15.43;;;4.93;;
30380;SDS011;17169;50.966;11.038;2022-10-31T11:32:42;19.13;;;5.25;;
30380;SDS011;17169;50.966;11.038;2022-10-31T11:35:51;13.43;;;5.82;;
30380;SDS011;17169;50.966;11.038;2022-10-31T11:38:55;16.58;;;5.40;;
30380;SDS011;17169;50.966;11.038;2022-10-31T11:41:59;13.80;;;5.15;;
30380;SDS011;17169;50.966;11.038;2022-10-31T11:48:15;11.80;;;5.00;;
30380;SDS011;17169;50.966;11.038;2022-10-31T11:51:20;12.60;;;5.00;;
30380;SDS011;17169;50.966;11.038;2022-10-31T11:54:24;15.55;;;5.55;;
30380;SDS011;17169;50.966;11.038;2022-10-31T11:57:30;13.48;;;5.57;;
30380;SDS011;17169;50.966;11.038;2022-10-31T12:00:36;9.85;;;5.63;;
30380;SDS011;17169;50.966;11.038;2022-10-31T12:03:44;17.10;;;5.07;;
30380;SDS011;17169;50.966;11.038;2022-10-31T12:06:53;15.52;;;6.00;;
30380;SDS011;17169;50.966;11.038;2022-10-31T12:09:56;14.07;;;6.85;;
30380;SDS011;17169;50.966;11.038;2022-10-31T12:13:01;15.23;;;6.93;;
30380;SDS011;17169;50.966;11.038;2022-10-31T12:16:16;15.85;;;7.38;;
30380;SDS011;17169;50.966;11.038;2022-10-31T12:19:25;25.45;;;7.95;;
30380;SDS011;17169;50.966;11.038;2022-10-31T12:22:39;16.90;;;8.10;;
30380;SDS011;17169;50.966;11.038;2022-10-31T12:25:49;18.27;;;7.68;;
30380;SDS011;17169;50.966;11.038;2022-10-31T12:29:00;17.08;;;6.78;;
30380;SDS011;17169;50.966;11.038;2022-10-31T12:32:13;17.83;;;7.57;;
30380;SDS011;17169;50.966;11.038;2022-10-31T12:35:29;14.70;;;6.80;;
30380;SDS011;17169;50.966;11.038;2022-10-31T12:38:42;21.42;;;7.10;;
30380;SDS011;17169;50.966;11.038;2022-10-31T12:41:58;19.40;;;6.63;;
30380;SDS011;17169;50.966;11.038;2022-10-31T12:45:15;11.95;;;5.85;;
30380;SDS011;17169;50.966;11.038;2022-10-31T12:52:09;13.55;;;6.03;;
30380;SDS011;17169;50.966;11.038;2022-10-31T12:55:29;22.85;;;6.50;;
30380;SDS011;17169;50.966;11.038;2022-10-31T12:58:43;14.90;;;5.75;;
30380;SDS011;17169;50.966;11.038;2022-10-31T13:01:53;15.77;;;6.05;;
30380;SDS011;17169;50.966;11.038;2022-10-31T13:05:01;16.40;;;5.97;;
30380;SDS011;17169;50.966;11.038;2022-10-31T13:08:08;16.42;;;6.30;;
30380;SDS011;17169;50.966;11.038;2022-10-31T13:11:15;14.35;;;5.45;;
30380;SDS011;17169;50.966;11.038;2022-10-31T13:14:23;18.10;;;7.25;;
30380;SDS011;17169;50.966;11.038;2022-10-31T13:17:30;17.58;;;5.28;;
30380;SDS011;17169;50.966;11.038;2022-10-31T13:20:38;13.40;;;5.97;;
30380;SDS011;17169;50.966;11.038;2022-10-31T13:23:44;18.13;;;6.05;;
30380;SDS011;17169;50.966;11.038;2022-10-31T13:26:51;15.88;;;6.50;;
30380;SDS011;17169;50.966;11.038;2022-10-31T13:29:58;13.20;;;5.68;;
30380;SDS011;17169;50.966;11.038;2022-10-31T13:33:06;13.00;;;6.18;;
30380;SDS011;17169;50.966;11.038;2022-10-31T13:36:19;17.88;;;6.03;;
30380;SDS011;17169;50.966;11.038;2022-10-31T13:39:32;16.70;;;5.72;;
30380;SDS011;17169;50.966;11.038;2022-10-31T13:42:50;13.60;;;5.97;;
30380;SDS011;17169;50.966;11.038;2022-10-31T13:45:59;16.17;;;5.82;;
30380;SDS011;17169;50.966;11.038;2022-10-31T13:49:02;14.15;;;5.65;;
30380;SDS011;17169;50.966;11.038;2022-10-31T13:52:05;15.63;;;6.68;;
30380;SDS011;17169;50.966;11.038;2022-10-31T13:55:39;10.95;;;5.45;;
30380;SDS011;17169;50.966;11.038;2022-10-31T13:58:53;13.05;;;5.65;;
30380;SDS011;17169;50.966;11.038;2022-10-31T14:02:14;18.63;;;6.20;;
30380;SDS011;17169;50.966;11.038;2022-10-31T14:05:21;17.35;;;5.88;;
30380;SDS011;17169;50.966;11.038;2022-10-31T14:08:25;15.10;;;5.05;;
30380;SDS011;17169;50.966;11.038;2022-10-31T14:11:29;17.00;;;5.93;;
30380;SDS011;17169;50.966;11.038;2022-10-31T14:14:39;14.00;;;5.60;;
30380;SDS011;17169;50.966;11.038;2022-10-31T14:17:49;16.08;;;5.57;;
30380;SDS011;17169;50.966;11.038;2022-10-31T14:20:54;14.02;;;5.40;;
30380;SDS011;17169;50.966;11.038;2022-10-31T14:23:56;13.88;;;5.90;;
30380;SDS011;17169;50.966;11.038;2022-10-31T14:27:00;11.23;;;5.63;;
30380;SDS011;17169;50.966;11.038;2022-10-31T14:30:13;15.25;;;6.03;;
30380;SDS011;17169;50.966;11.038;2022-10-31T14:33:18;13.32;;;5.40;;
30380;SDS011;17169;50.966;11.038;2022-10-31T14:36:23;14.30;;;5.80;;
30380;SDS011;17169;50.966;11.038;2022-10-31T14:39:32;16.40;;;5.88;;
30380;SDS011;17169;50.966;11.038;2022-10-31T14:42:45;10.80;;;4.70;;
30380;SDS011;17169;50.966;11.038;2022-10-31T14:46:00;15.75;;;5.97;;
30380;SDS011;17169;50.966;11.038;2022-10-31T14:49:12;19.48;;;6.15;;
30380;SDS011;17169;50.966;11.038;2022-10-31T14:52:24;17.10;;;6.25;;
30380;SDS011;17169;50.966;11.038;2022-10-31T14:55:27;22.45;;;7.65;;
30380;SDS011;17169;50.966;11.038;2022-10-31T14:58:33;16.67;;;7.28;;
30380;SDS011;17169;50.966;11.038;2022-10-31T15:01:39;17.25;;;7.82;;
30380;SDS011;17169;50.966;11.038;2022-10-31T15:04:53;17.85;;;8.05;;
30380;SDS011;17169;50.966;11.038;2022-10-31T15:07:58;19.02;;;8.55;;
30380;SDS011;17169;50.966;11.038;2022-10-31T15:11:08;16.70;;;8.68;;
30380;SDS011;17169;50.966;11.038;2022-10-31T15:14:20;22.10;;;8.52;;
30380;SDS011;17169;50.966;11.038;2022-10-31T15:17:25;20.02;;;8.07;;
30380;SDS011;17169;50.966;11.038;2022-10-31T15:20:28;19.88;;;8.85;;
30380;SDS011;17169;50.966;11.038;2022-10-31T15:23:35;17.75;;;7.50;;
30380;SDS011;17169;50.966;11.038;2022-10-31T15:26:38;19.92;;;8.02;;
30380;SDS011;17169;50.966;11.038;2022-10-31T15:29:49;19.40;;;8.30;;
30380;SDS011;17169;50.966;11.038;2022-10-31T15:32:53;20.60;;;8.85;;
30380;SDS011;17169;50.966;11.038;2022-10-31T15:35:56;20.80;;;9.30;;
30380;SDS011;17169;50.966;11.038;2022-10-31T15:39:00;20.42;;;10.15;;
30380;SDS011;17169;50.966;11.038;2022-10-31T15:42:03;30.58;;;12.02;;
30380;SDS011;17169;50.966;11.038;2022-10-31T15:45:15;33.40;;;12.43;;
30380;SDS011;17169;50.966;11.038;2022-10-31T15:48:21;24.80;;;11.68;;
30380;SDS011;17169;50.966;11.038;2022-10-31T15:51:26;25.83;;;12.00;;
30380;SDS011;17169;50.966;11.038;2022-10-31T15:54:29;28.48;;;12.80;;
30380;SDS011;17169;50.966;11.038;2022-10-31T15:57:32;23.95;;;12.27;;
30380;SDS011;17169;50.966;11.038;2022-10-31T16:00:36;27.23;;;13.25;;
30380;SDS011;17169;50.966;11.038;2022-10-31T16:03:40;37.83;;;13.90;;
30380;SDS011;17169;50.966;11.038;2022-10-31T16:06:42;30.00;;;12.80;;
30380;SDS011;17169;50.966;11.038;2022-10-31T16:09:54;29.83;;;13.35;;
30380;SDS011;17169;50.966;11.038;2022-10-31T16:13:00;22.58;;;11.95;;
30380;SDS011;17169;50.966;11.038;2022-10-31T16:16:11;29.73;;;12.80;;
30380;SDS011;17169;50.966;11.038;2022-10-31T16:19:16;28.75;;;14.25;;
30380;SDS011;17169;50.966;11.038;2022-10-31T16:25:25;37.13;;;15.65;;
30380;SDS011;17169;50.966;11.038;2022-10-31T16:28:29;33.05;;;16.13;;
30380;SDS011;17169;50.966;11.038;2022-10-31T16:31:39;36.53;;;16.33;;
30380;SDS011;17169;50.966;11.038;2022-10-31T16:34:42;33.10;;;16.65;;
30380;SDS011;17169;50.966;11.038;2022-10-31T16:37:44;31.65;;;16.55;;
30380;SDS011;17169;50.966;11.038;2022-10-31T16:40:46;38.28;;;16.30;;
30380;SDS011;17169;50.966;11.038;2022-10-31T16:43:49;39.95;;;19.13;;
30380;SDS011;17169;50.966;11.038;2022-10-31T16:47:06;44.78;;;18.75;;
30380;SDS011;17169;50.966;11.038;2022-10-31T16:50:12;42.13;;;18.15;;
30380;SDS011;17169;50.966;11.038;2022-10-31T16:53:16;32.08;;;17.33;;
30380;SDS011;17169;50.966;11.038;2022-10-31T16:56:20;37.25;;;18.02;;
30380;SDS011;17169;50.966;11.038;2022-10-31T16:59:28;37.65;;;18.15;;
30380;SDS011;17169;50.966;11.038;2022-10-31T17:02:33;28.98;;;15.10;;
30380;SDS011;17169;50.966;11.038;2022-10-31T17:05:36;28.20;;;13.55;;
30380;SDS011;17169;50.966;11.038;2022-10-31T17:08:38;30.05;;;15.25;;
30380;SDS011;17169;50.966;11.038;2022-10-31T17:11:42;32.50;;;15.38;;
30380;SDS011;17169;50.966;11.038;2022-10-31T17:14:48;32.42;;;15.88;;
30380;SDS011;17169;50.966;11.038;2022-10-31T17:17:53;32.90;;;16.52;;
30380;SDS011;17169;50.966;11.038;2022-10-31T17:20:57;30.23;;;15.20;;
30380;SDS011;17169;50.966;11.038;2022-10-31T17:24:01;27.58;;;14.75;;
30380;SDS011;17169;50.966;11.038;2022-10-31T17:27:03;30.10;;;14.55;;
30380;SDS011;17169;50.966;11.038;2022-10-31T17:30:06;33.03;;;16.02;;
30380;SDS011;17169;50.966;11.038;2022-10-31T17:33:11;32.05;;;15.43;;
30380;SDS011;17169;50.966;11.038;2022-10-31T17:36:14;21.67;;;12.65;;
30380;SDS011;17169;50.966;11.038;2022-10-31T17:39:17;30.40;;;14.90;;
30380;SDS011;17169;50.966;11.038;2022-10-31T17:42:20;28.52;;;14.90;;
30380;SDS011;17169;50.966;11.038;2022-10-31T17:45:23;26.58;;;13.55;;
30380;SDS011;17169;50.966;11.038;2022-10-31T17:48:28;28.35;;;13.52;;
30380;SDS011;17169;50.966;11.038;2022-10-31T17:51:30;21.02;;;12.57;;
30380;SDS011;17169;50.966;11.038;2022-10-31T17:54:32;27.38;;;12.65;;
30380;SDS011;17169;50.966;11.038;2022-10-31T17:57:35;27.98;;;14.82;;
30380;SDS011;17169;50.966;11.038;2022-10-31T18:00:38;32.08;;;15.25;;
30380;SDS011;17169;50.966;11.038;2022-10-31T18:03:43;39.85;;;15.95;;
30380;SDS011;17169;50.966;11.038;2022-10-31T18:06:45;41.05;;;20.35;;
30380;SDS011;17169;50.966;11.038;2022-10-31T18:09:49;34.67;;;19.58;;
30380;SDS011;17169;50.966;11.038;2022-10-31T18:12:51;36.90;;;18.67;;
30380;SDS011;17169;50.966;11.038;2022-10-31T18:15:54;37.78;;;19.67;;
30380;SDS011;17169;50.966;11.038;2022-10-31T18:18:58;41.15;;;20.23;;
30380;SDS011;17169;50.966;11.038;2022-10-31T18:22:01;31.20;;;16.05;;
30380;SDS011;17169;50.966;11.038;2022-10-31T18:25:04;32.17;;;15.27;;